Time;durP1;ratioP1;P1;durP2;ratioP2;P2;SDS_P1;SDS_P2;PMS_P1;PMS_P2;Temp;Humidity;BMP_temperature;BMP_pressure;BME280_temperature;BME280_humidity;BME280_pressure;Samples;Min_cycle;Max_cycle;Signal;HPM_P1;HPM_P2
2023/08/30 00:01:39;;;;;;;2.17;0.68;;;;;;;25.50;65.53;99069.50;7391423;19;20018;-81
2023/08/30 00:04:05;;;;;;;0.73;0.50;;;;;;;25.64;65.87;99069.84;7391883;19;20045;-81
2023/08/30 00:06:31;;;;;;;3.05;1.48;;;;;;;25.76;65.23;99065.03;7388201;19;20018;-81
2023/08/30 00:08:58;;;;;;;0.32;0.32;;;;;;;25.28;66.33;99067.78;7388042;19;20506;-81
2023/08/30 00:11:24;;;;;;;1.13;0.52;;;;;;;25.21;66.49;99068.66;7385876;19;20491;-81
2023/08/30 00:13:50;;;;;;;0.10;0.10;;;;;;;25.09;66.92;99067.00;7391194;19;20029;-80
2023/08/30 00:16:17;;;;;;;0.90;0.38;;;;;;;24.79;67.15;99069.00;7390323;19;20018;-79
2023/08/30 00:18:44;;;;;;;0.75;0.35;;;;;;;24.98;67.09;99068.31;7393124;19;20314;-81
2023/08/30 00:21:10;;;;;;;0.75;0.75;;;;;;;25.25;64.64;99060.41;7393878;19;20494;-80
2023/08/30 00:23:36;;;;;;;1.40;0.45;;;;;;;25.27;64.77;99059.84;7398118;19;20039;-81
2023/08/30 00:26:02;;;;;;;2.00;1.15;;;;;;;25.14;64.22;99057.41;7396677;19;20024;-81
2023/08/30 00:28:28;;;;;;;3.25;0.57;;;;;;;24.97;63.96;99055.41;7399504;19;20501;-80
2023/08/30 00:30:55;;;;;;;1.92;0.60;;;;;;;24.76;65.41;99052.34;7394911;19;20034;-81
2023/08/30 00:33:21;;;;;;;0.10;0.10;;;;;;;28.16;55.31;99051.16;7395505;19;20019;-81
2023/08/30 00:35:55;;;;;;;1.33;0.52;;;;;;;24.98;63.27;99054.06;7397157;19;20034;-81
2023/08/30 00:38:21;;;;;;;2.75;0.32;;;;;;;25.88;61.02;99053.78;7395964;19;20019;-81
2023/08/30 00:40:47;;;;;;;0.20;0.10;;;;;;;25.25;62.86;99049.03;7392691;19;20022;-81
2023/08/30 00:43:14;;;;;;;3.75;0.35;;;;;;;33.33;48.66;99037.84;7395509;19;20465;-84
2023/08/30 00:45:40;;;;;;;0.20;0.20;;;;;;;29.57;48.40;99051.38;7394831;19;20496;-83
2023/08/30 00:48:07;;;;;;;0.10;0.10;;;;;;;31.35;46.03;99048.44;7399317;19;20014;-80
2023/08/30 00:50:34;;;;;;;5.30;0.95;;;;;;;24.54;61.63;99056.25;7392316;19;20472;-80
2023/08/30 00:53:05;;;;;;;2.47;0.40;;;;;;;23.77;66.83;99047.22;7391698;19;20022;-80
2023/08/30 00:55:34;;;;;;;0.73;0.50;;;;;;;23.40;69.64;99048.38;7396815;19;20052;-80
2023/08/30 00:58:02;;;;;;;0.90;0.30;;;;;;;23.14;72.71;99048.97;7391880;19;20014;-80
2023/08/30 01:00:32;;;;;;;0.10;0.10;;;;;;;23.16;74.73;99046.31;7391487;19;20018;-80
2023/08/30 01:02:58;;;;;;;0.22;0.22;;;;;;;23.15;75.35;99044.81;7394085;19;20019;-80
2023/08/30 01:05:24;;;;;;;1.13;0.70;;;;;;;23.16;76.93;99035.69;7398294;19;20021;-80
2023/08/30 01:07:51;;;;;;;1.15;0.38;;;;;;;23.21;77.84;99036.81;7395549;19;20018;-80
2023/08/30 01:10:21;;;;;;;0.60;0.40;;;;;;;23.23;77.68;99039.81;7394632;19;20019;-80
2023/08/30 01:12:53;;;;;;;1.20;0.52;;;;;;;23.44;77.16;99025.22;7396517;19;20030;-79
2023/08/30 01:15:20;;;;;;;0.20;0.20;;;;;;;23.13;79.06;99036.84;7395356;19;20421;-80
2023/08/30 01:17:52;;;;;;;0.40;0.20;;;;;;;23.14;79.18;99026.25;7391745;19;20102;-80
2023/08/30 01:20:22;;;;;;;2.15;0.28;;;;;;;23.22;79.92;99026.94;7391979;19;20019;-80
2023/08/30 01:22:48;;;;;;;0.75;0.10;;;;;;;23.28;80.60;99027.47;7395132;19;20023;-80
2023/08/30 01:25:15;;;;;;;0.50;0.30;;;;;;;23.35;80.28;99024.56;7399016;19;20018;-81
2023/08/30 01:27:43;;;;;;;0.57;0.57;;;;;;;23.31;82.12;99029.13;7398490;19;20015;-81
2023/08/30 01:30:11;;;;;;;0.98;0.68;;;;;;;23.34;83.23;99028.75;7393543;19;20022;-81
2023/08/30 01:32:39;;;;;;;0.15;0.05;;;;;;;23.43;83.71;99018.81;7388036;19;20018;-81
2023/08/30 01:35:07;;;;;;;0.45;0.40;;;;;;;23.47;83.78;99015.53;7395333;19;20022;-81
2023/08/30 01:37:36;;;;;;;3.10;1.05;;;;;;;23.52;83.97;99020.94;7390774;19;20021;-61
2023/08/30 01:40:07;;;;;;;0.28;0.28;;;;;;;23.58;84.49;99021.47;7393844;19;20014;-61
2023/08/30 01:42:34;;;;;;;0.30;0.20;;;;;;;24.24;82.17;99020.44;7394766;19;20022;-60
2023/08/30 01:45:03;;;;;;;0.22;0.20;;;;;;;25.67;71.03;99017.28;7398850;19;20066;-61
2023/08/30 01:47:31;;;;;;;0.80;0.70;;;;;;;30.93;60.13;99008.06;7395428;19;20011;-61
2023/08/30 01:49:57;;;;;;;0.70;0.35;;;;;;;33.94;48.53;98998.56;7393033;19;20018;-61
2023/08/30 01:52:24;;;;;;;0.30;0.20;;;;;;;34.99;44.39;98994.75;7401264;19;20018;-59
2023/08/30 01:54:53;;;;;;;2.08;0.45;;;;;;;35.10;43.64;99000.91;7398275;19;20010;-60
2023/08/30 01:57:19;;;;;;;2.65;0.30;;;;;;;35.27;42.58;99003.72;7398332;19;20473;-61
2023/08/30 01:59:46;;;;;;;0.10;0.10;;;;;;;35.24;41.98;98999.25;7394956;19;20002;-61
2023/08/30 02:02:12;;;;;;;0.82;0.40;;;;;;;35.35;41.69;98989.50;7394850;19;20363;-61
2023/08/30 02:04:38;;;;;;;8.55;0.20;;;;;;;34.45;41.88;98980.34;7398052;19;20084;-61
2023/08/30 02:07:16;;;;;;;0.20;0.20;;;;;;;35.61;41.04;98983.88;7396428;19;20021;-61
2023/08/30 02:09:55;;;;;;;0.20;0.10;;;;;;;35.97;39.77;98990.19;7397305;19;20018;-61
2023/08/30 02:12:24;;;;;;;0.40;0.35;;;;;;;36.64;38.60;98996.66;7395117;19;20018;-61
2023/08/30 02:14:52;;;;;;;2.90;0.50;;;;;;;36.73;38.35;98998.38;7396689;19;20034;-61
2023/08/30 02:17:19;;;;;;;0.40;0.35;;;;;;;36.69;37.88;98991.72;7395718;19;20027;-60
2023/08/30 02:19:45;;;;;;;0.82;0.60;;;;;;;36.38;38.12;98990.03;7394248;19;20015;-60
2023/08/30 02:22:11;;;;;;;1.75;1.00;;;;;;;36.64;37.59;98985.06;7399189;19;20010;-60
2023/08/30 02:24:38;;;;;;;0.82;0.68;;;;;;;36.73;37.07;98986.78;7395652;19;20019;-60
2023/08/30 02:27:04;;;;;;;4.60;0.98;;;;;;;36.85;37.09;98981.31;7398925;19;20359;-62
2023/08/30 02:29:30;;;;;;;3.33;0.82;;;;;;;36.78;36.72;98991.25;7393240;19;20629;-62
2023/08/30 02:31:56;;;;;;;2.28;0.52;;;;;;;36.82;37.02;98982.66;7394385;19;20478;-60
2023/08/30 02:34:22;;;;;;;0.63;0.43;;;;;;;36.49;37.13;98986.06;7397990;19;20007;-59
2023/08/30 02:36:49;;;;;;;1.40;0.55;;;;;;;30.48;43.97;98993.41;7394899;19;20087;-59
2023/08/30 02:39:15;;;;;;;0.75;0.70;;;;;;;29.56;49.18;98983.84;7393207;19;20078;-61
2023/08/30 02:41:41;;;;;;;1.98;0.38;;;;;;;34.08;43.38;98983.97;7394744;19;20014;-59
2023/08/30 02:44:08;;;;;;;6.97;1.15;;;;;;;35.94;39.85;98979.91;7397054;19;20035;-59
2023/08/30 02:46:37;;;;;;;2.65;0.90;;;;;;;36.34;38.20;98981.22;7393860;19;20038;-60
2023/08/30 02:49:05;;;;;;;1.13;1.02;;;;;;;36.46;37.95;98975.78;7396789;19;20081;-59
2023/08/30 02:51:32;;;;;;;1.58;0.20;;;;;;;36.22;38.12;98980.81;7394015;19;20048;-60
2023/08/30 02:53:58;;;;;;;1.95;0.93;;;;;;;27.77;51.15;98987.03;7388829;19;20014;-60
2023/08/30 02:56:25;;;;;;;6.75;0.77;;;;;;;26.77;59.92;98981.72;7399246;19;20033;-59
2023/08/30 02:58:51;;;;;;;0.52;0.30;;;;;;;33.70;45.99;98968.66;7393727;19;20466;-59
2023/08/30 03:01:17;;;;;;;1.75;1.40;;;;;;;29.39;48.65;98974.97;7395685;19;20474;-59
2023/08/30 03:03:45;;;;;;;2.30;0.82;;;;;;;33.73;44.68;98967.38;7393632;19;20074;-59
2023/08/30 03:06:13;;;;;;;5.68;1.05;;;;;;;34.08;43.81;98973.16;7393365;19;20014;-59
2023/08/30 03:08:40;;;;;;;0.95;0.20;;;;;;;26.51;58.16;98988.41;7395414;19;20019;-59
2023/08/30 03:11:10;;;;;;;0.60;0.57;;;;;;;25.93;62.59;98981.38;7391147;19;20380;-60
2023/08/30 03:13:38;;;;;;;0.95;0.82;;;;;;;33.12;47.62;98963.28;7393298;19;20014;-61
2023/08/30 03:16:15;;;;;;;1.17;0.57;;;;;;;28.42;56.65;98971.88;7394981;19;20027;-60
2023/08/30 03:18:42;;;;;;;0.70;0.30;;;;;;;27.08;60.55;98975.22;7395332;19;20021;-60
2023/08/30 03:21:09;;;;;;;5.35;0.95;;;;;;;27.34;59.15;98969.16;7394747;19;20093;-60
2023/08/30 03:23:36;;;;;;;4.20;0.95;;;;;;;34.96;43.57;98958.44;7394611;19;20018;-60
2023/08/30 03:26:08;;;;;;;7.75;1.15;;;;;;;35.89;41.24;98952.22;7393486;19;20010;-60
2023/08/30 03:28:34;;;;;;;0.90;0.43;;;;;;;36.21;40.08;98944.56;7394847;19;20017;-55
2023/08/30 03:31:00;;;;;;;0.38;0.32;;;;;;;36.46;38.78;98949.69;7390274;19;20035;-55
2023/08/30 03:33:26;;;;;;;0.57;0.30;;;;;;;36.63;38.73;98942.94;7390638;19;20360;-55
2023/08/30 03:35:53;;;;;;;1.08;0.90;;;;;;;36.61;38.42;98945.78;7392207;19;20007;-55
2023/08/30 03:38:19;;;;;;;2.67;0.30;;;;;;;36.66;37.64;98964.03;7392143;19;20035;-55
2023/08/30 03:40:45;;;;;;;1.80;1.10;;;;;;;36.78;37.51;98953.53;7390486;19;20355;-55
2023/08/30 03:43:12;;;;;;;0.32;0.32;;;;;;;36.83;37.29;98955.13;7392925;19;20037;-54
2023/08/30 03:45:38;;;;;;;0.77;0.77;;;;;;;24.15;65.91;98961.38;7393577;19;20015;-55
2023/08/30 03:48:04;;;;;;;1.45;0.80;;;;;;;21.16;100.00;98974.06;7389669;19;20015;-55
2023/08/30 03:50:31;;;;;;;3.33;1.27;;;;;;;20.00;100.00;98970.25;7391365;19;20006;-55
2023/08/30 03:52:57;;;;;;;1.50;0.60;;;;;;;19.38;100.00;98973.44;7393864;19;20035;-55
2023/08/30 03:55:23;;;;;;;8.20;1.13;;;;;;;18.85;100.00;98972.34;7397028;19;20011;-55
2023/08/30 03:57:49;;;;;;;4.70;1.40;;;;;;;17.51;100.00;98981.72;7401037;19;20026;-55
2023/08/30 04:00:15;;;;;;;0.73;0.55;;;;;;;17.00;100.00;98973.50;7400193;19;20011;-55
2023/08/30 04:02:41;;;;;;;0.55;0.30;;;;;;;16.78;100.00;98973.19;7402242;19;20086;-55
2023/08/30 04:05:09;;;;;;;0.88;0.32;;;;;;;16.59;100.00;98982.47;7399587;19;20012;-54
2023/08/30 04:07:38;;;;;;;3.95;1.08;;;;;;;17.72;100.00;98980.47;7399551;19;20036;-61
2023/08/30 04:10:06;;;;;;;3.33;1.60;;;;;;;16.62;100.00;98981.41;7395413;19;20018;-61
2023/08/30 04:12:34;;;;;;;2.45;0.77;;;;;;;19.26;100.00;98977.88;7398137;19;20015;-61
2023/08/30 04:15:02;;;;;;;1.02;1.02;;;;;;;18.71;100.00;98980.13;7400566;19;20011;-62
2023/08/30 04:17:28;;;;;;;0.95;0.50;;;;;;;16.99;100.00;98986.06;7398499;19;20019;-62
2023/08/30 04:19:54;;;;;;;0.77;0.50;;;;;;;16.21;100.00;98995.09;7398266;19;20018;-61
2023/08/30 04:22:20;;;;;;;2.15;0.77;;;;;;;16.66;100.00;98986.69;7401285;19;20038;-62
2023/08/30 04:24:47;;;;;;;2.80;0.50;;;;;;;16.06;100.00;98991.25;7401049;19;20027;-61
2023/08/30 04:27:13;;;;;;;4.25;0.52;;;;;;;16.11;100.00;98985.56;7401817;19;20021;-61
2023/08/30 04:29:39;;;;;;;3.40;0.70;;;;;;;15.94;100.00;98996.28;7398047;19;20011;-61
2023/08/30 04:32:05;;;;;;;1.20;0.32;;;;;;;15.87;100.00;98994.09;7397699;19;20022;-61
2023/08/30 04:34:32;;;;;;;2.83;1.13;;;;;;;15.85;100.00;98994.59;7398891;19;20037;-62
2023/08/30 04:36:58;;;;;;;0.98;0.82;;;;;;;15.77;100.00;98992.94;7398490;19;20010;-61
2023/08/30 04:39:24;;;;;;;0.88;0.80;;;;;;;15.74;100.00;99002.44;7397699;19;20014;-61
2023/08/30 04:41:52;;;;;;;0.68;0.68;;;;;;;15.69;100.00;98983.63;7398239;19;20014;-61
2023/08/30 04:44:19;;;;;;;2.08;1.23;;;;;;;15.66;100.00;98993.09;7399274;19;20030;-62
2023/08/30 04:46:46;;;;;;;0.68;0.50;;;;;;;15.65;100.00;98997.97;7400040;19;20011;-62
2023/08/30 04:49:12;;;;;;;1.08;0.68;;;;;;;15.64;100.00;98995.69;7398704;19;20032;-61
2023/08/30 04:51:38;;;;;;;1.10;0.30;;;;;;;15.63;100.00;98994.94;7400307;19;20018;-62
2023/08/30 04:54:06;;;;;;;16.27;0.80;;;;;;;15.62;100.00;98998.25;7396884;19;20017;-62
2023/08/30 04:56:32;;;;;;;1.70;0.47;;;;;;;15.60;100.00;99000.84;7396401;19;20014;-62
2023/08/30 04:58:58;;;;;;;6.60;0.90;;;;;;;15.59;100.00;98993.72;7397147;19;20478;-63
2023/08/30 05:01:24;;;;;;;1.95;0.35;;;;;;;15.52;100.00;99000.69;7399464;19;20021;-62
2023/08/30 05:03:54;;;;;;;1.30;1.00;;;;;;;15.54;100.00;98997.34;7401328;19;20451;-62
2023/08/30 05:06:20;;;;;;;0.45;0.43;;;;;;;15.46;100.00;98996.44;7396087;19;20056;-62
2023/08/30 05:08:46;;;;;;;0.70;0.60;;;;;;;15.41;100.00;98992.41;7398369;19;20014;-61
2023/08/30 05:11:13;;;;;;;3.15;1.20;;;;;;;15.36;100.00;98995.25;7395846;19;20405;-61
2023/08/30 05:13:39;;;;;;;1.13;0.88;;;;;;;15.30;100.00;99000.19;7398894;19;20462;-62
2023/08/30 05:16:05;;;;;;;2.45;1.25;;;;;;;15.27;100.00;98998.44;7395920;19;20025;-62
2023/08/30 05:18:32;;;;;;;1.58;1.17;;;;;;;15.28;100.00;98997.16;7396525;19;20014;-62
2023/08/30 05:21:03;;;;;;;0.22;0.22;;;;;;;15.31;100.00;99007.31;7397850;19;20070;-62
2023/08/30 05:23:31;;;;;;;3.00;1.90;;;;;;;15.34;100.00;99006.25;7398669;19;20019;-62
2023/08/30 05:25:57;;;;;;;1.67;1.05;;;;;;;15.36;100.00;99009.28;7400820;19;20031;-61
2023/08/30 05:28:23;;;;;;;0.13;0.13;;;;;;;15.40;100.00;99009.78;7396284;19;20336;-61
2023/08/30 05:30:51;;;;;;;8.50;1.38;;;;;;;15.46;100.00;99013.28;7393576;19;20017;-61
2023/08/30 05:33:46;;;;;;;3.03;1.70;;;;;;;27.92;95.34;99000.13;7393594;19;20003;-61
2023/08/30 05:36:28;;;;;;;4.97;0.93;;;;;;;33.24;58.63;98984.03;7395698;19;20022;-62
2023/08/30 05:39:03;;;;;;;2.05;1.23;;;;;;;34.71;51.21;98995.84;7400053;19;20015;-62
2023/08/30 05:41:37;;;;;;;1.10;0.50;;;;;;;35.40;48.02;98988.25;7395243;19;20031;-62
2023/08/30 05:44:04;;;;;;;4.50;1.25;;;;;;;35.80;45.21;98995.41;7395456;19;20018;-62
2023/08/30 05:46:30;;;;;;;0.40;0.40;;;;;;;35.93;43.99;98990.75;7400224;19;20011;-62
2023/08/30 05:48:56;;;;;;;3.80;0.90;;;;;;;35.94;43.35;98998.03;7398577;19;20014;-62
2023/08/30 05:51:23;;;;;;;3.65;0.50;;;;;;;36.16;42.69;98995.13;7397832;19;20026;-62
2023/08/30 05:53:49;;;;;;;1.30;0.77;;;;;;;36.47;41.69;98988.91;7396026;19;20062;-61
2023/08/30 05:56:16;;;;;;;1.08;0.88;;;;;;;35.78;41.93;98998.25;7400506;19;20481;-63
2023/08/30 05:58:43;;;;;;;1.00;0.63;;;;;;;35.91;41.20;98992.88;7393755;19;20467;-62
2023/08/30 06:01:09;;;;;;;0.95;0.90;;;;;;;36.21;40.93;98996.75;7398688;19;20035;-60
2023/08/30 06:03:35;;;;;;;0.50;0.50;;;;;;;34.98;41.56;98993.22;7394744;19;20014;-60
2023/08/30 06:06:01;;;;;;;2.05;0.50;;;;;;;36.18;39.73;98990.16;7394325;19;20344;-60
2023/08/30 06:08:28;;;;;;;1.50;0.80;;;;;;;36.18;39.48;98990.16;7395979;19;20364;-60
2023/08/30 06:10:54;;;;;;;0.60;0.30;;;;;;;36.27;39.21;98991.13;7398015;19;20350;-60
2023/08/30 06:13:20;;;;;;;1.45;0.50;;;;;;;36.17;38.89;98985.75;7399182;19;20014;-60
2023/08/30 06:15:50;;;;;;;3.47;0.80;;;;;;;36.12;38.29;98989.22;7394257;19;20066;-60
2023/08/30 06:18:16;;;;;;;0.15;0.15;;;;;;;36.15;38.80;98993.66;7394686;19;20033;-61
2023/08/30 06:20:43;;;;;;;1.73;0.35;;;;;;;36.14;38.40;98986.38;7398274;19;20019;-60
2023/08/30 06:23:10;;;;;;;0.40;0.40;;;;;;;36.44;37.70;98990.25;7394285;19;20035;-60
2023/08/30 06:25:36;;;;;;;0.98;0.50;;;;;;;36.55;37.77;98983.31;7398888;19;20354;-60
2023/08/30 06:28:03;;;;;;;0.43;0.38;;;;;;;36.51;37.19;98983.22;7394455;19;20471;-59
2023/08/30 06:30:29;;;;;;;2.92;1.08;;;;;;;36.73;37.25;98991.81;7397792;19;20015;-59
2023/08/30 06:32:56;;;;;;;4.57;0.75;;;;;;;36.85;36.93;98992.91;7395661;19;20070;-59
2023/08/30 06:35:23;;;;;;;0.95;0.35;;;;;;;36.73;37.21;98986.78;7395677;19;20023;-60
2023/08/30 06:37:50;;;;;;;1.42;0.65;;;;;;;36.77;36.81;98992.69;7399153;19;20045;-61
2023/08/30 06:40:16;;;;;;;0.63;0.30;;;;;;;36.58;36.21;98987.75;7395409;19;20018;-61
2023/08/30 06:42:43;;;;;;;2.75;0.30;;;;;;;36.65;36.25;98994.47;7393585;19;20010;-60
2023/08/30 06:45:11;;;;;;;0.70;0.40;;;;;;;36.72;36.09;98985.28;7394667;19;20015;-60
2023/08/30 06:47:37;;;;;;;1.08;0.40;;;;;;;36.72;35.95;98981.63;7393287;19;20014;-60
2023/08/30 06:50:03;;;;;;;1.40;0.47;;;;;;;36.46;36.12;98988.16;7397485;19;20078;-60
2023/08/30 06:52:30;;;;;;;0.80;0.28;;;;;;;35.97;36.88;98985.13;7396781;19;20509;-60
2023/08/30 06:54:56;;;;;;;2.33;0.73;;;;;;;36.21;36.67;98990.97;7393428;19;20066;-60
2023/08/30 06:57:22;;;;;;;0.15;0.10;;;;;;;36.28;36.75;98973.06;7391362;19;20021;-60
2023/08/30 06:59:48;;;;;;;0.10;0.00;;;;;;;35.68;37.37;98971.84;7394300;19;20011;-60
2023/08/30 07:02:14;;;;;;;0.40;0.15;;;;;;;36.18;36.85;98986.50;7396483;19;20025;-60
2023/08/30 07:04:41;;;;;;;2.47;0.10;;;;;;;36.38;36.27;98984.22;7392925;19;20482;-60
2023/08/30 07:07:08;;;;;;;0.55;0.55;;;;;;;36.80;36.28;98973.88;7395446;19;20038;-60
2023/08/30 07:09:34;;;;;;;0.10;0.10;;;;;;;37.06;36.08;98977.56;7392944;19;20020;-60
2023/08/30 07:12:00;;;;;;;1.30;0.20;;;;;;;37.27;35.91;98978.88;7393508;19;20018;-60
2023/08/30 07:14:27;;;;;;;0.82;0.47;;;;;;;37.33;35.55;98987.00;7395520;19;20038;-60
2023/08/30 07:16:53;;;;;;;0.17;0.17;;;;;;;37.34;35.60;98979.75;7397856;19;20029;-59
2023/08/30 07:19:19;;;;;;;0.77;0.32;;;;;;;37.49;35.36;98985.25;7392900;19;20021;-60
2023/08/30 07:21:46;;;;;;;6.63;0.55;;;;;;;37.58;35.10;98984.06;7392503;19;20011;-59
2023/08/30 07:24:13;;;;;;;1.08;0.50;;;;;;;37.88;35.17;98989.94;7395873;19;20010;-60
2023/08/30 07:26:40;;;;;;;1.13;0.63;;;;;;;37.56;35.51;98980.34;7394600;19;20340;-60
2023/08/30 07:29:06;;;;;;;0.50;0.30;;;;;;;37.51;35.05;98972.97;7393385;19;20418;-59
2023/08/30 07:31:33;;;;;;;1.52;0.85;;;;;;;38.07;34.26;98979.47;7400540;19;20100;-59
2023/08/30 07:33:59;;;;;;;0.28;0.10;;;;;;;38.28;34.54;98973.44;7401628;19;20365;-60
2023/08/30 07:36:30;;;;;;;1.55;0.30;;;;;;;38.19;34.80;98973.91;7398969;19;20015;-59
2023/08/30 07:38:56;;;;;;;0.80;0.30;;;;;;;38.27;33.91;98971.22;7399590;19;20010;-60
2023/08/30 07:41:22;;;;;;;1.30;0.93;;;;;;;38.60;33.79;98965.41;7401407;19;20094;-61
2023/08/30 07:43:48;;;;;;;1.98;0.52;;;;;;;38.60;33.55;98971.22;7398937;19;20474;-60
2023/08/30 07:46:14;;;;;;;3.22;0.35;;;;;;;38.51;33.74;98974.66;7403915;19;20010;-60
2023/08/30 07:48:40;;;;;;;1.55;0.57;;;;;;;38.73;33.98;98972.25;7400632;19;20018;-60
2023/08/30 07:51:06;;;;;;;0.57;0.43;;;;;;;38.82;33.21;98979.72;7399156;19;20074;-60
2023/08/30 07:53:32;;;;;;;1.35;0.47;;;;;;;38.76;33.07;98970.13;7402090;19;20002;-60
2023/08/30 07:55:58;;;;;;;0.15;0.15;;;;;;;38.87;32.70;98971.81;7402379;19;20015;-61
2023/08/30 07:58:24;;;;;;;5.38;0.80;;;;;;;38.99;32.89;98980.78;7400430;19;20062;-61
2023/08/30 08:00:53;;;;;;;0.95;0.43;;;;;;;39.10;32.75;98979.53;7400417;19;20010;-61
2023/08/30 08:03:21;;;;;;;0.10;0.10;;;;;;;39.20;32.67;98976.84;7400183;19;20502;-61
2023/08/30 08:05:47;;;;;;;0.15;0.10;;;;;;;39.39;32.55;98967.00;7399329;19;20018;-61
2023/08/30 08:08:14;;;;;;;1.55;0.30;;;;;;;39.52;32.55;98971.59;7398815;19;20007;-61
2023/08/30 08:10:42;;;;;;;2.05;0.22;;;;;;;39.50;32.77;98962.81;7397398;19;20019;-60
2023/08/30 08:13:08;;;;;;;3.30;0.30;;;;;;;33.05;39.30;98975.97;7399676;19;20015;-61
2023/08/30 08:15:35;;;;;;;0.20;0.20;;;;;;;38.61;33.99;98958.16;7401043;19;20011;-61
2023/08/30 08:18:02;;;;;;;0.20;0.20;;;;;;;38.83;33.11;98963.00;7402389;19;20017;-61
2023/08/30 08:20:29;;;;;;;1.58;0.57;;;;;;;38.99;33.36;98974.94;7397162;19;20038;-60
2023/08/30 08:22:56;;;;;;;0.63;0.10;;;;;;;39.91;32.42;98965.00;7397473;19;20015;-60
2023/08/30 08:25:23;;;;;;;1.23;0.57;;;;;;;37.97;34.40;98968.31;7403181;19;20007;-60
2023/08/30 08:27:50;;;;;;;0.32;0.32;;;;;;;30.21;43.75;98984.69;7398222;19;20015;-59
2023/08/30 08:30:17;;;;;;;0.75;0.52;;;;;;;33.69;46.80;98972.22;7397396;19;20096;-60
2023/08/30 08:32:46;;;;;;;1.48;0.63;;;;;;;31.11;43.47;98980.25;7397577;19;20095;-60
2023/08/30 08:35:12;;;;;;;0.38;0.05;;;;;;;25.13;99.08;98993.97;7401944;19;20074;-61
2023/08/30 08:37:38;;;;;;;0.57;0.38;;;;;;;39.03;40.48;98969.22;7399421;19;20352;-60
2023/08/30 08:40:08;;;;;;;1.23;0.30;;;;;;;36.04;42.77;98983.16;7396554;19;20007;-61
2023/08/30 08:42:35;;;;;;;0.57;0.47;;;;;;;41.47;35.98;98964.84;7397455;19;20041;-61
2023/08/30 08:45:03;;;;;;;0.32;0.32;;;;;;;42.53;33.17;98950.28;7400563;19;20014;-61
2023/08/30 08:47:31;;;;;;;0.30;0.30;;;;;;;42.69;31.77;98958.41;7398347;19;20019;-62
2023/08/30 08:49:58;;;;;;;1.02;0.32;;;;;;;33.40;40.40;98970.28;7399230;19;20006;-61
2023/08/30 08:52:25;;;;;;;1.20;0.68;;;;;;;40.22;34.39;98962.56;7401103;19;20100;-61
2023/08/30 08:54:53;;;;;;;2.10;0.60;;;;;;;41.90;31.69;98960.84;7399869;19;20066;-61
2023/08/30 08:57:19;;;;;;;2.97;0.73;;;;;;;41.99;30.88;98955.78;7397447;19;20015;-61
2023/08/30 08:59:45;;;;;;;0.98;0.55;;;;;;;42.34;30.34;98960.44;7398248;19;20010;-60
2023/08/30 09:02:14;;;;;;;0.85;0.43;;;;;;;42.37;29.79;98961.16;7398727;19;20120;-60
2023/08/30 09:04:41;;;;;;;0.40;0.32;;;;;;;42.58;29.55;98956.91;7397174;19;20573;-60
2023/08/30 09:07:07;;;;;;;0.82;0.50;;;;;;;39.64;30.68;98954.34;7399650;19;20018;-60
2023/08/30 09:09:34;;;;;;;1.13;0.55;;;;;;;30.54;45.00;98973.59;7396956;19;20031;-60
2023/08/30 09:12:00;;;;;;;0.30;0.30;;;;;;;39.07;36.27;98958.34;7398435;19;20011;-60
2023/08/30 09:14:26;;;;;;;0.40;0.40;;;;;;;41.79;31.54;98958.56;7401696;19;20032;-60
2023/08/30 09:16:56;;;;;;;2.60;0.52;;;;;;;42.32;30.62;98942.84;7398681;19;20365;-59
2023/08/30 09:19:22;;;;;;;4.68;0.65;;;;;;;42.62;29.94;98945.94;7397555;19;20022;-60
2023/08/30 09:21:56;;;;;;;1.75;0.85;;;;;;;26.53;55.39;98974.28;7398734;19;20045;-59
2023/08/30 09:24:22;;;;;;;7.90;0.40;;;;;;;32.19;68.01;98953.28;7396013;19;20033;-59
2023/08/30 09:26:50;;;;;;;3.42;0.93;;;;;;;31.64;55.14;98957.78;7400172;19;20027;-59
2023/08/30 09:29:19;;;;;;;1.98;0.60;;;;;;;29.63;65.64;98965.63;7398421;19;20014;-60
2023/08/30 09:31:45;;;;;;;12.23;1.65;;;;;;;29.09;66.36;98959.53;7396732;19;20014;-59
2023/08/30 09:34:12;;;;;;;1.90;0.50;;;;;;;28.84;67.39;98965.19;7396453;19;20470;-59
2023/08/30 09:36:40;;;;;;;4.30;0.73;;;;;;;35.29;53.49;98950.91;7400653;19;20006;-59
2023/08/30 09:39:11;;;;;;;0.65;0.65;;;;;;;36.46;47.52;98946.78;7396681;19;20022;-60
2023/08/30 09:41:41;;;;;;;1.48;0.60;;;;;;;41.03;36.66;98947.56;7396063;19;20013;-60
2023/08/30 09:44:16;;;;;;;1.00;0.40;;;;;;;42.14;33.77;98955.19;7395371;19;20014;-60
2023/08/30 09:46:44;;;;;;;0.43;0.20;;;;;;;42.77;32.55;98955.50;7396032;19;20018;-60
2023/08/30 09:49:10;;;;;;;0.60;0.40;;;;;;;42.78;31.06;98969.44;7398987;19;20035;-59
2023/08/30 09:51:42;;;;;;;0.10;0.00;;;;;;;42.56;30.16;98972.25;7396846;19;20018;-59
2023/08/30 09:54:17;;;;;;;0.47;0.40;;;;;;;39.22;32.62;98974.69;7393371;19;20018;-59
2023/08/30 09:56:45;;;;;;;0.40;0.10;;;;;;;41.69;30.16;98978.97;7394763;19;20019;-59
2023/08/30 09:59:12;;;;;;;2.00;0.28;;;;;;;42.78;29.84;98963.56;7396645;19;20011;-59
2023/08/30 10:01:40;;;;;;;0.38;0.28;;;;;;;43.20;29.74;98968.09;7394173;19;20351;-59
2023/08/30 10:04:08;;;;;;;0.65;0.10;;;;;;;43.26;29.11;98965.22;7397137;19;20019;-58
2023/08/30 10:06:36;;;;;;;0.10;0.00;;;;;;;43.66;27.73;98971.88;7398211;19;20070;-59
2023/08/30 10:09:04;;;;;;;5.05;0.30;;;;;;;43.42;27.52;98974.03;7395801;19;20010;-59
2023/08/30 10:11:35;;;;;;;0.52;0.20;;;;;;;43.18;27.82;98973.97;7395202;19;20014;-59
2023/08/30 10:14:06;;;;;;;0.57;0.17;;;;;;;42.80;27.64;98975.28;7394674;19;20010;-59
2023/08/30 10:16:45;;;;;;;;;;;;;;;24.71;58.09;99004.94;7396657;19;20014;-59
2023/08/30 10:19:17;;;;;;;0.22;0.10;;;;;;;18.81;100.00;99019.91;7397007;19;20303;-59
2023/08/30 10:21:48;;;;;;;1.20;0.40;;;;;;;23.43;100.00;99001.75;7398799;19;20013;-59
2023/08/30 10:24:19;;;;;;;5.38;0.52;;;;;;;39.37;43.24;98984.47;7397108;19;20011;-59
2023/08/30 10:26:46;;;;;;;2.67;0.25;;;;;;;30.16;50.93;98991.59;7400122;19;20451;-59
2023/08/30 10:29:15;;;;;;;1.55;0.50;;;;;;;19.70;100.00;99021.03;7397006;19;20100;-59
2023/08/30 10:31:41;;;;;;;0.75;0.10;;;;;;;20.70;100.00;99024.31;7395037;19;20011;-58
2023/08/30 10:34:16;;;;;;;0.10;0.00;;;;;;;26.62;100.00;99010.63;7395471;19;20357;-58
2023/08/30 10:36:43;;;;;;;1.95;0.32;;;;;;;39.63;44.28;98993.69;7398889;19;20487;-59
2023/08/30 10:39:14;;;;;;;0.28;0.10;;;;;;;21.81;100.00;99023.13;7396868;19;20019;-59
2023/08/30 10:41:58;;;;;;;;;;;;;;;22.66;100.00;99005.84;7396321;19;20477;-60
2023/08/30 10:44:27;;;;;;;0.47;0.08;;;;;;;19.35;100.00;99014.09;7393075;19;19958;-60
2023/08/30 10:46:54;;;;;;;0.70;0.25;;;;;;;31.35;89.64;99002.38;7393339;19;20010;-60
2023/08/30 10:49:21;;;;;;;4.72;0.45;;;;;;;27.05;86.85;99006.53;7395729;19;20017;-60
2023/08/30 10:51:57;;;;;;;0.75;0.10;;;;;;;23.50;100.00;99012.25;7397876;19;20018;-60
2023/08/30 10:54:24;;;;;;;0.35;0.28;;;;;;;20.27;100.00;99027.28;7394741;19;20015;-60
2023/08/30 10:57:01;;;;;;;1.25;0.47;;;;;;;28.68;70.66;99007.19;7394301;19;20018;-60
2023/08/30 10:59:29;;;;;;;1.38;0.17;;;;;;;35.35;62.07;98998.19;7396329;19;20086;-60
2023/08/30 11:01:55;;;;;;;0.10;0.10;;;;;;;20.83;100.00;99026.19;7393217;19;20356;-59
2023/08/30 11:04:22;;;;;;;0.32;0.20;;;;;;;19.44;100.00;99027.69;7393376;19;20026;-60
2023/08/30 11:06:51;;;;;;;0.15;0.15;;;;;;;19.14;100.00;99021.09;7393059;19;20017;-60
2023/08/30 11:09:21;;;;;;;0.10;0.10;;;;;;;19.31;100.00;99021.38;7391025;19;20014;-60
2023/08/30 11:11:49;;;;;;;1.23;0.10;;;;;;;38.09;56.72;98994.78;7391707;19;20032;-61
2023/08/30 11:14:16;;;;;;;0.00;0.00;;;;;;;40.32;40.80;98986.03;7394719;19;20025;-61
2023/08/30 11:16:43;;;;;;;4.38;0.93;;;;;;;32.04;45.40;99000.84;7398036;19;20018;-61
2023/08/30 11:19:11;;;;;;;0.10;0.10;;;;;;;23.36;100.00;98999.72;7395606;19;20049;-61
2023/08/30 11:21:40;;;;;;;0.10;0.10;;;;;;;22.40;100.00;99012.06;7396627;19;20022;-61
2023/08/30 11:24:07;;;;;;;0.22;0.10;;;;;;;21.76;100.00;99012.78;7392866;19;20014;-61
2023/08/30 11:26:33;;;;;;;7.00;0.82;;;;;;;21.45;100.00;99022.72;7396124;19;20026;-60
2023/08/30 11:29:07;;;;;;;1.08;0.00;;;;;;;21.28;100.00;99019.75;7394089;19;20014;-60
2023/08/30 11:31:34;;;;;;;0.82;0.10;;;;;;;21.34;100.00;99020.28;7392022;19;20406;-61
2023/08/30 11:34:00;;;;;;;0.00;0.00;;;;;;;21.59;100.00;99024.75;7390932;19;20030;-61